sensor_id;sensor_type;location;lat;lon;timestamp;P1;durP1;ratioP1;P2;durP2;ratioP2
19687;SDS011;9993;52.008;4.732;2023-03-01T00:00:36;34.97;;;18.53;;
19687;SDS011;9993;52.008;4.732;2023-03-01T00:03:13;37.10;;;23.07;;
19687;SDS011;9993;52.008;4.732;2023-03-01T00:05:47;28.30;;;19.77;;
19687;SDS011;9993;52.008;4.732;2023-03-01T00:08:20;32.30;;;19.30;;
19687;SDS011;9993;52.008;4.732;2023-03-01T00:10:46;31.40;;;18.40;;
19687;SDS011;9993;52.008;4.732;2023-03-01T00:13:26;32.93;;;18.70;;
19687;SDS011;9993;52.008;4.732;2023-03-01T00:15:57;30.63;;;19.33;;
19687;SDS011;9993;52.008;4.732;2023-03-01T00:18:29;37.70;;;20.80;;
19687;SDS011;9993;52.008;4.732;2023-03-01T00:23:34;35.17;;;19.23;;
19687;SDS011;9993;52.008;4.732;2023-03-01T00:26:09;30.47;;;18.10;;
19687;SDS011;9993;52.008;4.732;2023-03-01T00:28:44;35.97;;;20.57;;
19687;SDS011;9993;52.008;4.732;2023-03-01T00:31:28;39.90;;;21.53;;
19687;SDS011;9993;52.008;4.732;2023-03-01T00:36:55;34.43;;;20.80;;
19687;SDS011;9993;52.008;4.732;2023-03-01T00:39:33;39.27;;;21.07;;
19687;SDS011;9993;52.008;4.732;2023-03-01T00:41:58;37.53;;;20.47;;
19687;SDS011;9993;52.008;4.732;2023-03-01T00:44:30;36.70;;;22.00;;
19687;SDS011;9993;52.008;4.732;2023-03-01T00:46:55;43.50;;;21.73;;
19687;SDS011;9993;52.008;4.732;2023-03-01T00:49:26;35.17;;;20.07;;
19687;SDS011;9993;52.008;4.732;2023-03-01T00:51:52;36.73;;;18.93;;
19687;SDS011;9993;52.008;4.732;2023-03-01T00:54:35;34.40;;;18.33;;
19687;SDS011;9993;52.008;4.732;2023-03-01T00:57:01;30.57;;;18.17;;
19687;SDS011;9993;52.008;4.732;2023-03-01T00:59:26;35.83;;;20.43;;
19687;SDS011;9993;52.008;4.732;2023-03-01T01:01:51;39.47;;;20.97;;
19687;SDS011;9993;52.008;4.732;2023-03-01T01:04:23;34.43;;;19.67;;
19687;SDS011;9993;52.008;4.732;2023-03-01T01:07:10;41.63;;;22.10;;
19687;SDS011;9993;52.008;4.732;2023-03-01T01:09:34;37.90;;;21.43;;
19687;SDS011;9993;52.008;4.732;2023-03-01T01:15:05;42.97;;;21.73;;
19687;SDS011;9993;52.008;4.732;2023-03-01T01:17:32;38.63;;;21.30;;
19687;SDS011;9993;52.008;4.732;2023-03-01T01:19:57;42.40;;;21.90;;
19687;SDS011;9993;52.008;4.732;2023-03-01T01:22:28;38.80;;;21.97;;
19687;SDS011;9993;52.008;4.732;2023-03-01T01:24:53;45.57;;;22.93;;
19687;SDS011;9993;52.008;4.732;2023-03-01T01:27:42;45.83;;;23.20;;
19687;SDS011;9993;52.008;4.732;2023-03-01T01:30:08;40.73;;;22.37;;
19687;SDS011;9993;52.008;4.732;2023-03-01T01:32:34;38.67;;;21.83;;
19687;SDS011;9993;52.008;4.732;2023-03-01T01:34:59;44.30;;;23.37;;
19687;SDS011;9993;52.008;4.732;2023-03-01T01:37:37;44.23;;;23.57;;
19687;SDS011;9993;52.008;4.732;2023-03-01T01:40:02;41.57;;;23.80;;
19687;SDS011;9993;52.008;4.732;2023-03-01T01:42:31;39.60;;;23.07;;
19687;SDS011;9993;52.008;4.732;2023-03-01T01:48:10;47.83;;;24.60;;
19687;SDS011;9993;52.008;4.732;2023-03-01T01:50:38;50.13;;;24.97;;
19687;SDS011;9993;52.008;4.732;2023-03-01T01:53:05;44.23;;;24.53;;
19687;SDS011;9993;52.008;4.732;2023-03-01T01:55:31;50.13;;;24.97;;
19687;SDS011;9993;52.008;4.732;2023-03-01T01:57:58;46.40;;;25.83;;
19687;SDS011;9993;52.008;4.732;2023-03-01T02:00:25;48.27;;;26.17;;
19687;SDS011;9993;52.008;4.732;2023-03-01T02:02:52;50.70;;;24.73;;
19687;SDS011;9993;52.008;4.732;2023-03-01T02:05:28;53.97;;;26.70;;
19687;SDS011;9993;52.008;4.732;2023-03-01T02:07:57;52.07;;;26.53;;
19687;SDS011;9993;52.008;4.732;2023-03-01T02:10:23;51.57;;;26.10;;
19687;SDS011;9993;52.008;4.732;2023-03-01T02:12:49;61.93;;;29.17;;
19687;SDS011;9993;52.008;4.732;2023-03-01T02:15:14;55.73;;;27.00;;
19687;SDS011;9993;52.008;4.732;2023-03-01T02:17:40;53.63;;;24.87;;
19687;SDS011;9993;52.008;4.732;2023-03-01T02:22:46;53.27;;;27.50;;
19687;SDS011;9993;52.008;4.732;2023-03-01T02:30:17;51.60;;;25.27;;
19687;SDS011;9993;52.008;4.732;2023-03-01T02:32:43;48.30;;;25.10;;
19687;SDS011;9993;52.008;4.732;2023-03-01T02:48:03;37.47;;;22.20;;
19687;SDS011;9993;52.008;4.732;2023-03-01T02:55:55;32.77;;;20.53;;
19687;SDS011;9993;52.008;4.732;2023-03-01T02:58:30;39.60;;;20.70;;
19687;SDS011;9993;52.008;4.732;2023-03-01T03:01:00;34.67;;;20.10;;
19687;SDS011;9993;52.008;4.732;2023-03-01T03:03:40;35.60;;;20.43;;
19687;SDS011;9993;52.008;4.732;2023-03-01T03:06:05;37.40;;;20.63;;
19687;SDS011;9993;52.008;4.732;2023-03-01T03:08:40;35.57;;;20.47;;
19687;SDS011;9993;52.008;4.732;2023-03-01T03:11:24;36.07;;;19.87;;
19687;SDS011;9993;52.008;4.732;2023-03-01T03:14:07;43.63;;;22.77;;
19687;SDS011;9993;52.008;4.732;2023-03-01T03:16:45;41.83;;;21.57;;
19687;SDS011;9993;52.008;4.732;2023-03-01T03:19:20;43.47;;;22.80;;
19687;SDS011;9993;52.008;4.732;2023-03-01T03:21:45;36.53;;;19.97;;
19687;SDS011;9993;52.008;4.732;2023-03-01T03:27:15;43.57;;;22.63;;
19687;SDS011;9993;52.008;4.732;2023-03-01T03:32:55;39.47;;;22.30;;
19687;SDS011;9993;52.008;4.732;2023-03-01T03:35:37;47.77;;;24.50;;
19687;SDS011;9993;52.008;4.732;2023-03-01T03:38:04;45.53;;;23.90;;
19687;SDS011;9993;52.008;4.732;2023-03-01T03:40:39;43.33;;;24.10;;
19687;SDS011;9993;52.008;4.732;2023-03-01T03:43:05;44.67;;;23.50;;
19687;SDS011;9993;52.008;4.732;2023-03-01T03:45:31;40.00;;;22.40;;
19687;SDS011;9993;52.008;4.732;2023-03-01T03:47:58;43.93;;;23.53;;
19687;SDS011;9993;52.008;4.732;2023-03-01T03:50:30;47.40;;;23.73;;
19687;SDS011;9993;52.008;4.732;2023-03-01T03:52:55;43.70;;;23.70;;
19687;SDS011;9993;52.008;4.732;2023-03-01T03:55:29;42.27;;;22.97;;
19687;SDS011;9993;52.008;4.732;2023-03-01T04:00:57;39.53;;;21.70;;
19687;SDS011;9993;52.008;4.732;2023-03-01T04:03:31;40.47;;;24.23;;
19687;SDS011;9993;52.008;4.732;2023-03-01T04:06:42;46.90;;;23.97;;
19687;SDS011;9993;52.008;4.732;2023-03-01T04:08:54;45.57;;;23.20;;
19687;SDS011;9993;52.008;4.732;2023-03-01T04:11:24;49.93;;;25.33;;
19687;SDS011;9993;52.008;4.732;2023-03-01T04:13:55;50.93;;;25.73;;
19687;SDS011;9993;52.008;4.732;2023-03-01T04:16:39;50.13;;;27.00;;
19687;SDS011;9993;52.008;4.732;2023-03-01T04:22:04;49.83;;;26.33;;
19687;SDS011;9993;52.008;4.732;2023-03-01T04:24:37;45.43;;;23.53;;
19687;SDS011;9993;52.008;4.732;2023-03-01T04:27:02;52.97;;;26.60;;
19687;SDS011;9993;52.008;4.732;2023-03-01T04:29:37;52.00;;;26.87;;
19687;SDS011;9993;52.008;4.732;2023-03-01T04:34:50;49.47;;;27.53;;
19687;SDS011;9993;52.008;4.732;2023-03-01T04:40:28;50.27;;;26.03;;
19687;SDS011;9993;52.008;4.732;2023-03-01T04:42:53;48.30;;;25.93;;
19687;SDS011;9993;52.008;4.732;2023-03-01T04:45:25;52.77;;;26.80;;
19687;SDS011;9993;52.008;4.732;2023-03-01T04:47:50;52.27;;;26.80;;
19687;SDS011;9993;52.008;4.732;2023-03-01T04:50:17;53.47;;;26.40;;
19687;SDS011;9993;52.008;4.732;2023-03-01T04:53:10;49.47;;;26.67;;
19687;SDS011;9993;52.008;4.732;2023-03-01T04:55:48;48.83;;;26.37;;
19687;SDS011;9993;52.008;4.732;2023-03-01T04:58:13;50.00;;;25.77;;
19687;SDS011;9993;52.008;4.732;2023-03-01T05:00:52;52.60;;;26.73;;
19687;SDS011;9993;52.008;4.732;2023-03-01T05:03:29;56.33;;;27.13;;
19687;SDS011;9993;52.008;4.732;2023-03-01T05:06:01;54.10;;;27.73;;
19687;SDS011;9993;52.008;4.732;2023-03-01T05:08:29;49.47;;;23.97;;
19687;SDS011;9993;52.008;4.732;2023-03-01T05:11:13;50.60;;;27.33;;
19687;SDS011;9993;52.008;4.732;2023-03-01T05:13:51;45.97;;;24.23;;
19687;SDS011;9993;52.008;4.732;2023-03-01T05:16:31;42.43;;;25.13;;
19687;SDS011;9993;52.008;4.732;2023-03-01T05:19:00;54.23;;;27.23;;
19687;SDS011;9993;52.008;4.732;2023-03-01T05:21:31;49.87;;;27.30;;
19687;SDS011;9993;52.008;4.732;2023-03-01T05:26:59;50.23;;;26.90;;
19687;SDS011;9993;52.008;4.732;2023-03-01T05:29:34;52.77;;;27.73;;
19687;SDS011;9993;52.008;4.732;2023-03-01T05:32:00;54.73;;;27.63;;
19687;SDS011;9993;52.008;4.732;2023-03-01T05:34:34;49.90;;;28.70;;
19687;SDS011;9993;52.008;4.732;2023-03-01T05:39:35;44.37;;;24.63;;
19687;SDS011;9993;52.008;4.732;2023-03-01T05:56:36;42.57;;;23.87;;
19687;SDS011;9993;52.008;4.732;2023-03-01T06:01:37;46.43;;;23.67;;
19687;SDS011;9993;52.008;4.732;2023-03-01T06:04:03;46.33;;;24.23;;
19687;SDS011;9993;52.008;4.732;2023-03-01T06:06:28;46.90;;;24.30;;
19687;SDS011;9993;52.008;4.732;2023-03-01T06:08:54;46.67;;;25.33;;
19687;SDS011;9993;52.008;4.732;2023-03-01T06:11:30;45.47;;;23.87;;
19687;SDS011;9993;52.008;4.732;2023-03-01T06:14:08;50.90;;;25.30;;
19687;SDS011;9993;52.008;4.732;2023-03-01T06:16:45;47.57;;;24.43;;
19687;SDS011;9993;52.008;4.732;2023-03-01T06:19:10;51.70;;;27.37;;
19687;SDS011;9993;52.008;4.732;2023-03-01T06:21:46;45.07;;;23.50;;
19687;SDS011;9993;52.008;4.732;2023-03-01T06:24:32;48.93;;;24.13;;
19687;SDS011;9993;52.008;4.732;2023-03-01T06:27:08;45.73;;;25.20;;
19687;SDS011;9993;52.008;4.732;2023-03-01T06:29:33;47.47;;;25.40;;
19687;SDS011;9993;52.008;4.732;2023-03-01T06:35:02;48.37;;;24.70;;
19687;SDS011;9993;52.008;4.732;2023-03-01T06:39:58;53.00;;;27.87;;
19687;SDS011;9993;52.008;4.732;2023-03-01T06:42:29;57.00;;;27.17;;
19687;SDS011;9993;52.008;4.732;2023-03-01T06:44:55;45.10;;;24.30;;
19687;SDS011;9993;52.008;4.732;2023-03-01T06:47:23;50.63;;;24.20;;
19687;SDS011;9993;52.008;4.732;2023-03-01T06:49:54;48.07;;;24.30;;
19687;SDS011;9993;52.008;4.732;2023-03-01T06:52:22;45.57;;;23.83;;
19687;SDS011;9993;52.008;4.732;2023-03-01T06:54:50;50.73;;;25.83;;
19687;SDS011;9993;52.008;4.732;2023-03-01T06:57:28;53.47;;;28.53;;
19687;SDS011;9993;52.008;4.732;2023-03-01T07:02:51;47.63;;;25.50;;
19687;SDS011;9993;52.008;4.732;2023-03-01T07:05:30;37.70;;;21.70;;
19687;SDS011;9993;52.008;4.732;2023-03-01T07:07:55;50.33;;;27.57;;
19687;SDS011;9993;52.008;4.732;2023-03-01T07:10:27;51.30;;;24.13;;
19687;SDS011;9993;52.008;4.732;2023-03-01T07:12:56;52.27;;;25.57;;
19687;SDS011;9993;52.008;4.732;2023-03-01T07:15:22;41.33;;;23.03;;
19687;SDS011;9993;52.008;4.732;2023-03-01T07:17:47;46.97;;;23.73;;
19687;SDS011;9993;52.008;4.732;2023-03-01T07:20:15;45.27;;;25.87;;
19687;SDS011;9993;52.008;4.732;2023-03-01T07:22:41;43.37;;;23.57;;
19687;SDS011;9993;52.008;4.732;2023-03-01T07:25:09;33.40;;;19.50;;
19687;SDS011;9993;52.008;4.732;2023-03-01T07:27:36;44.97;;;24.97;;
19687;SDS011;9993;52.008;4.732;2023-03-01T07:33:07;40.80;;;21.67;;
19687;SDS011;9993;52.008;4.732;2023-03-01T07:35:35;37.93;;;23.73;;
19687;SDS011;9993;52.008;4.732;2023-03-01T07:38:01;38.23;;;21.20;;
19687;SDS011;9993;52.008;4.732;2023-03-01T07:40:29;38.03;;;20.53;;
19687;SDS011;9993;52.008;4.732;2023-03-01T07:43:00;34.17;;;19.43;;
19687;SDS011;9993;52.008;4.732;2023-03-01T07:45:26;35.93;;;20.10;;
19687;SDS011;9993;52.008;4.732;2023-03-01T07:47:52;36.40;;;21.33;;
19687;SDS011;9993;52.008;4.732;2023-03-01T07:50:26;35.97;;;20.37;;
19687;SDS011;9993;52.008;4.732;2023-03-01T07:56:01;30.63;;;17.33;;
19687;SDS011;9993;52.008;4.732;2023-03-01T07:58:27;30.77;;;18.07;;
19687;SDS011;9993;52.008;4.732;2023-03-01T08:00:55;27.47;;;16.63;;
19687;SDS011;9993;52.008;4.732;2023-03-01T08:03:26;27.17;;;16.57;;
19687;SDS011;9993;52.008;4.732;2023-03-01T08:06:10;25.60;;;15.93;;
19687;SDS011;9993;52.008;4.732;2023-03-01T08:11:51;22.57;;;14.10;;
19687;SDS011;9993;52.008;4.732;2023-03-01T08:14:22;23.90;;;14.80;;
19687;SDS011;9993;52.008;4.732;2023-03-01T08:16:57;16.17;;;10.73;;
19687;SDS011;9993;52.008;4.732;2023-03-01T08:19:22;15.07;;;11.07;;
19687;SDS011;9993;52.008;4.732;2023-03-01T08:21:47;17.70;;;11.67;;
19687;SDS011;9993;52.008;4.732;2023-03-01T08:24:13;16.77;;;11.97;;
19687;SDS011;9993;52.008;4.732;2023-03-01T08:26:38;14.90;;;10.20;;
19687;SDS011;9993;52.008;4.732;2023-03-01T08:29:13;18.03;;;11.27;;
19687;SDS011;9993;52.008;4.732;2023-03-01T08:31:39;12.13;;;9.73;;
19687;SDS011;9993;52.008;4.732;2023-03-01T08:34:13;13.93;;;8.77;;
19687;SDS011;9993;52.008;4.732;2023-03-01T08:36:40;14.30;;;10.63;;
19687;SDS011;9993;52.008;4.732;2023-03-01T08:39:06;13.13;;;9.70;;
19687;SDS011;9993;52.008;4.732;2023-03-01T08:41:31;10.13;;;7.77;;
19687;SDS011;9993;52.008;4.732;2023-03-01T08:43:57;12.57;;;9.50;;
19687;SDS011;9993;52.008;4.732;2023-03-01T08:46:29;16.47;;;10.97;;
19687;SDS011;9993;52.008;4.732;2023-03-01T08:49:20;12.33;;;8.70;;
19687;SDS011;9993;52.008;4.732;2023-03-01T08:51:46;13.33;;;8.80;;
19687;SDS011;9993;52.008;4.732;2023-03-01T08:54:12;11.10;;;8.23;;
19687;SDS011;9993;52.008;4.732;2023-03-01T08:56:39;9.47;;;8.47;;
19687;SDS011;9993;52.008;4.732;2023-03-01T08:59:04;11.47;;;8.50;;
19687;SDS011;9993;52.008;4.732;2023-03-01T09:01:30;12.93;;;10.67;;
19687;SDS011;9993;52.008;4.732;2023-03-01T09:03:55;12.77;;;9.03;;
19687;SDS011;9993;52.008;4.732;2023-03-01T09:06:20;12.00;;;9.10;;
19687;SDS011;9993;52.008;4.732;2023-03-01T09:08:47;12.07;;;9.60;;
19687;SDS011;9993;52.008;4.732;2023-03-01T09:11:13;12.97;;;9.10;;
19687;SDS011;9993;52.008;4.732;2023-03-01T09:13:43;13.13;;;9.30;;
19687;SDS011;9993;52.008;4.732;2023-03-01T09:16:10;12.73;;;8.43;;
19687;SDS011;9993;52.008;4.732;2023-03-01T09:18:35;13.00;;;9.27;;
19687;SDS011;9993;52.008;4.732;2023-03-01T09:21:05;15.30;;;10.73;;
19687;SDS011;9993;52.008;4.732;2023-03-01T09:23:35;13.57;;;10.03;;
19687;SDS011;9993;52.008;4.732;2023-03-01T09:26:07;17.63;;;11.13;;
19687;SDS011;9993;52.008;4.732;2023-03-01T09:28:38;15.90;;;11.60;;
19687;SDS011;9993;52.008;4.732;2023-03-01T09:31:03;14.17;;;9.20;;
19687;SDS011;9993;52.008;4.732;2023-03-01T09:33:29;12.27;;;9.77;;
19687;SDS011;9993;52.008;4.732;2023-03-01T09:35:58;10.80;;;8.80;;
19687;SDS011;9993;52.008;4.732;2023-03-01T09:38:23;10.43;;;7.23;;
19687;SDS011;9993;52.008;4.732;2023-03-01T09:40:49;11.00;;;8.40;;
19687;SDS011;9993;52.008;4.732;2023-03-01T09:43:23;10.07;;;6.83;;
19687;SDS011;9993;52.008;4.732;2023-03-01T09:45:50;10.30;;;7.47;;
19687;SDS011;9993;52.008;4.732;2023-03-01T09:48:23;8.93;;;6.97;;
19687;SDS011;9993;52.008;4.732;2023-03-01T09:50:48;9.50;;;6.70;;
19687;SDS011;9993;52.008;4.732;2023-03-01T09:53:19;10.17;;;7.97;;
19687;SDS011;9993;52.008;4.732;2023-03-01T09:58:31;9.50;;;7.27;;
19687;SDS011;9993;52.008;4.732;2023-03-01T10:01:10;8.53;;;6.67;;
19687;SDS011;9993;52.008;4.732;2023-03-01T10:03:41;7.37;;;6.53;;
19687;SDS011;9993;52.008;4.732;2023-03-01T10:06:13;7.47;;;6.77;;
19687;SDS011;9993;52.008;4.732;2023-03-01T10:11:19;8.53;;;7.53;;
19687;SDS011;9993;52.008;4.732;2023-03-01T10:14:05;9.23;;;7.80;;
19687;SDS011;9993;52.008;4.732;2023-03-01T10:16:40;8.57;;;6.60;;
19687;SDS011;9993;52.008;4.732;2023-03-01T10:19:08;9.70;;;7.20;;
19687;SDS011;9993;52.008;4.732;2023-03-01T10:21:36;10.93;;;7.93;;
19687;SDS011;9993;52.008;4.732;2023-03-01T10:24:13;7.67;;;6.77;;
19687;SDS011;9993;52.008;4.732;2023-03-01T10:26:44;9.03;;;7.50;;
19687;SDS011;9993;52.008;4.732;2023-03-01T10:29:12;6.40;;;5.70;;
19687;SDS011;9993;52.008;4.732;2023-03-01T10:34:13;10.33;;;8.30;;
19687;SDS011;9993;52.008;4.732;2023-03-01T10:36:39;9.63;;;7.63;;
19687;SDS011;9993;52.008;4.732;2023-03-01T10:39:39;9.00;;;7.53;;
19687;SDS011;9993;52.008;4.732;2023-03-01T10:41:59;8.77;;;7.80;;
19687;SDS011;9993;52.008;4.732;2023-03-01T10:47:12;10.00;;;7.50;;
19687;SDS011;9993;52.008;4.732;2023-03-01T10:49:38;9.67;;;7.70;;
19687;SDS011;9993;52.008;4.732;2023-03-01T10:52:11;8.70;;;7.37;;
19687;SDS011;9993;52.008;4.732;2023-03-01T10:54:40;8.10;;;6.93;;
19687;SDS011;9993;52.008;4.732;2023-03-01T10:57:10;7.00;;;6.00;;
19687;SDS011;9993;52.008;4.732;2023-03-01T10:59:51;6.30;;;5.67;;
19687;SDS011;9993;52.008;4.732;2023-03-01T11:02:28;6.50;;;5.80;;
19687;SDS011;9993;52.008;4.732;2023-03-01T11:05:01;10.63;;;5.57;;
19687;SDS011;9993;52.008;4.732;2023-03-01T11:07:27;6.13;;;5.50;;
19687;SDS011;9993;52.008;4.732;2023-03-01T11:09:52;9.27;;;6.10;;
19687;SDS011;9993;52.008;4.732;2023-03-01T11:12:18;9.50;;;7.20;;
19687;SDS011;9993;52.008;4.732;2023-03-01T11:14:53;8.30;;;6.07;;
19687;SDS011;9993;52.008;4.732;2023-03-01T11:22:32;7.03;;;6.33;;
19687;SDS011;9993;52.008;4.732;2023-03-01T11:24:59;6.37;;;5.07;;
19687;SDS011;9993;52.008;4.732;2023-03-01T11:27:26;5.70;;;5.20;;
19687;SDS011;9993;52.008;4.732;2023-03-01T11:30:00;8.15;;;6.30;;
19687;SDS011;9993;52.008;4.732;2023-03-01T11:32:28;7.10;;;6.40;;
19687;SDS011;9993;52.008;4.732;2023-03-01T11:34:57;7.15;;;6.05;;
19687;SDS011;9993;52.008;4.732;2023-03-01T11:40:02;7.03;;;6.32;;
19687;SDS011;9993;52.008;4.732;2023-03-01T11:42:35;6.65;;;5.65;;
19687;SDS011;9993;52.008;4.732;2023-03-01T11:45:06;7.47;;;5.95;;
19687;SDS011;9993;52.008;4.732;2023-03-01T11:53:02;6.38;;;5.78;;
19687;SDS011;9993;52.008;4.732;2023-03-01T12:22:08;6.72;;;6.05;;
19687;SDS011;9993;52.008;4.732;2023-03-01T12:27:21;7.63;;;6.55;;
19687;SDS011;9993;52.008;4.732;2023-03-01T12:30:16;7.95;;;6.28;;
19687;SDS011;9993;52.008;4.732;2023-03-01T12:32:41;7.90;;;6.07;;
19687;SDS011;9993;52.008;4.732;2023-03-01T12:42:53;7.95;;;5.38;;
19687;SDS011;9993;52.008;4.732;2023-03-01T12:50:39;6.37;;;5.77;;
19687;SDS011;9993;52.008;4.732;2023-03-01T12:53:05;6.37;;;5.27;;
19687;SDS011;9993;52.008;4.732;2023-03-01T12:55:34;6.63;;;5.67;;
19687;SDS011;9993;52.008;4.732;2023-03-01T12:58:46;8.13;;;6.27;;
19687;SDS011;9993;52.008;4.732;2023-03-01T13:03:43;6.93;;;5.73;;
19687;SDS011;9993;52.008;4.732;2023-03-01T13:06:22;8.37;;;5.23;;
19687;SDS011;9993;52.008;4.732;2023-03-01T13:08:51;6.30;;;4.87;;
19687;SDS011;9993;52.008;4.732;2023-03-01T13:11:21;4.93;;;4.53;;
19687;SDS011;9993;52.008;4.732;2023-03-01T13:13:46;5.70;;;5.20;;
19687;SDS011;9993;52.008;4.732;2023-03-01T13:16:21;6.77;;;5.97;;
19687;SDS011;9993;52.008;4.732;2023-03-01T13:18:47;5.50;;;5.00;;
19687;SDS011;9993;52.008;4.732;2023-03-01T13:21:13;6.47;;;5.70;;
19687;SDS011;9993;52.008;4.732;2023-03-01T13:23:53;6.77;;;5.93;;
19687;SDS011;9993;52.008;4.732;2023-03-01T13:26:19;5.73;;;5.17;;
19687;SDS011;9993;52.008;4.732;2023-03-01T13:31:10;6.63;;;5.40;;
19687;SDS011;9993;52.008;4.732;2023-03-01T13:33:40;5.77;;;5.27;;
19687;SDS011;9993;52.008;4.732;2023-03-01T13:36:06;5.50;;;5.00;;
19687;SDS011;9993;52.008;4.732;2023-03-01T13:39:25;5.67;;;4.97;;
19687;SDS011;9993;52.008;4.732;2023-03-01T13:44:12;6.97;;;5.33;;
19687;SDS011;9993;52.008;4.732;2023-03-01T13:46:37;6.10;;;5.50;;
19687;SDS011;9993;52.008;4.732;2023-03-01T13:49:03;5.20;;;4.80;;
19687;SDS011;9993;52.008;4.732;2023-03-01T13:51:28;6.90;;;5.83;;
19687;SDS011;9993;52.008;4.732;2023-03-01T13:53:53;10.97;;;6.17;;
19687;SDS011;9993;52.008;4.732;2023-03-01T13:56:21;6.22;;;5.63;;
19687;SDS011;9993;52.008;4.732;2023-03-01T13:58:53;5.43;;;4.93;;
19687;SDS011;9993;52.008;4.732;2023-03-01T14:01:27;8.45;;;5.40;;
19687;SDS011;9993;52.008;4.732;2023-03-01T14:03:53;8.07;;;6.03;;
19687;SDS011;9993;52.008;4.732;2023-03-01T14:06:22;6.47;;;5.28;;
19687;SDS011;9993;52.008;4.732;2023-03-01T14:08:49;5.80;;;5.15;;
19687;SDS011;9993;52.008;4.732;2023-03-01T14:19:18;5.43;;;4.93;;
19687;SDS011;9993;52.008;4.732;2023-03-01T14:21:44;5.35;;;4.78;;
19687;SDS011;9993;52.008;4.732;2023-03-01T14:24:17;5.70;;;5.10;;
19687;SDS011;9993;52.008;4.732;2023-03-01T14:26:42;5.85;;;5.25;;
19687;SDS011;9993;52.008;4.732;2023-03-01T14:29:22;5.68;;;4.68;;
19687;SDS011;9993;52.008;4.732;2023-03-01T14:31:47;6.15;;;5.07;;
19687;SDS011;9993;52.008;4.732;2023-03-01T14:34:23;6.15;;;5.10;;
19687;SDS011;9993;52.008;4.732;2023-03-01T14:36:49;6.43;;;5.20;;
19687;SDS011;9993;52.008;4.732;2023-03-01T14:39:18;5.63;;;5.07;;
19687;SDS011;9993;52.008;4.732;2023-03-01T14:41:43;5.32;;;4.82;;
19687;SDS011;9993;52.008;4.732;2023-03-01T14:44:12;4.85;;;4.45;;
19687;SDS011;9993;52.008;4.732;2023-03-01T14:46:39;5.90;;;5.35;;
19687;SDS011;9993;52.008;4.732;2023-03-01T14:49:27;5.90;;;5.40;;
19687;SDS011;9993;52.008;4.732;2023-03-01T14:56:45;5.63;;;4.50;;
19687;SDS011;9993;52.008;4.732;2023-03-01T14:59:10;5.43;;;4.93;;
19687;SDS011;9993;52.008;4.732;2023-03-01T15:01:36;5.45;;;4.68;;
19687;SDS011;9993;52.008;4.732;2023-03-01T15:04:01;5.55;;;4.00;;
19687;SDS011;9993;52.008;4.732;2023-03-01T15:06:27;5.97;;;4.97;;
19687;SDS011;9993;52.008;4.732;2023-03-01T15:08:52;6.53;;;5.50;;
19687;SDS011;9993;52.008;4.732;2023-03-01T15:11:31;5.93;;;5.38;;
19687;SDS011;9993;52.008;4.732;2023-03-01T15:13:57;5.50;;;5.00;;
19687;SDS011;9993;52.008;4.732;2023-03-01T15:18:49;6.72;;;4.20;;
19687;SDS011;9993;52.008;4.732;2023-03-01T15:21:20;5.50;;;5.00;;
19687;SDS011;9993;52.008;4.732;2023-03-01T15:23:52;5.23;;;4.73;;
19687;SDS011;9993;52.008;4.732;2023-03-01T15:26:24;6.30;;;5.32;;
19687;SDS011;9993;52.008;4.732;2023-03-01T15:28:51;4.73;;;4.27;;
19687;SDS011;9993;52.008;4.732;2023-03-01T15:31:24;7.00;;;5.20;;
19687;SDS011;9993;52.008;4.732;2023-03-01T15:33:49;4.90;;;4.40;;
19687;SDS011;9993;52.008;4.732;2023-03-01T15:38:59;6.10;;;5.10;;
19687;SDS011;9993;52.008;4.732;2023-03-01T15:43:55;6.70;;;5.07;;
19687;SDS011;9993;52.008;4.732;2023-03-01T15:48:47;6.97;;;4.43;;
19687;SDS011;9993;52.008;4.732;2023-03-01T15:51:14;5.90;;;5.07;;
19687;SDS011;9993;52.008;4.732;2023-03-01T15:53:40;6.50;;;5.20;;
19687;SDS011;9993;52.008;4.732;2023-03-01T15:56:05;4.90;;;4.40;;
19687;SDS011;9993;52.008;4.732;2023-03-01T15:58:32;5.83;;;4.90;;
19687;SDS011;9993;52.008;4.732;2023-03-01T16:00:57;6.37;;;4.60;;
19687;SDS011;9993;52.008;4.732;2023-03-01T16:03:23;6.20;;;4.70;;
19687;SDS011;9993;52.008;4.732;2023-03-01T16:05:49;5.73;;;4.60;;
19687;SDS011;9993;52.008;4.732;2023-03-01T16:08:15;6.10;;;5.17;;
19687;SDS011;9993;52.008;4.732;2023-03-01T16:10:40;5.87;;;5.10;;
19687;SDS011;9993;52.008;4.732;2023-03-01T16:13:06;5.50;;;5.00;;
19687;SDS011;9993;52.008;4.732;2023-03-01T16:15:32;6.37;;;4.70;;
19687;SDS011;9993;52.008;4.732;2023-03-01T16:17:59;5.73;;;4.90;;
19687;SDS011;9993;52.008;4.732;2023-03-01T16:20:24;6.43;;;5.00;;
19687;SDS011;9993;52.008;4.732;2023-03-01T16:22:50;6.50;;;4.73;;
19687;SDS011;9993;52.008;4.732;2023-03-01T16:25:16;6.33;;;5.03;;
19687;SDS011;9993;52.008;4.732;2023-03-01T16:27:42;8.30;;;4.57;;
19687;SDS011;9993;52.008;4.732;2023-03-01T16:30:08;5.87;;;4.37;;
19687;SDS011;9993;52.008;4.732;2023-03-01T16:32:37;6.87;;;5.33;;
19687;SDS011;9993;52.008;4.732;2023-03-01T16:35:03;7.37;;;4.13;;
19687;SDS011;9993;52.008;4.732;2023-03-01T16:37:30;5.13;;;4.63;;
19687;SDS011;9993;52.008;4.732;2023-03-01T16:39:56;8.57;;;4.93;;
19687;SDS011;9993;52.008;4.732;2023-03-01T16:42:21;5.30;;;4.47;;
19687;SDS011;9993;52.008;4.732;2023-03-01T16:44:47;7.13;;;5.27;;
19687;SDS011;9993;52.008;4.732;2023-03-01T16:47:12;4.90;;;4.47;;
19687;SDS011;9993;52.008;4.732;2023-03-01T16:49:37;6.30;;;5.07;;
19687;SDS011;9993;52.008;4.732;2023-03-01T16:52:03;5.27;;;4.50;;
19687;SDS011;9993;52.008;4.732;2023-03-01T16:54:28;6.60;;;5.03;;
19687;SDS011;9993;52.008;4.732;2023-03-01T16:56:53;6.63;;;4.40;;
19687;SDS011;9993;52.008;4.732;2023-03-01T16:59:18;6.37;;;4.73;;
19687;SDS011;9993;52.008;4.732;2023-03-01T17:01:44;5.10;;;4.60;;
19687;SDS011;9993;52.008;4.732;2023-03-01T17:04:11;6.23;;;4.33;;
19687;SDS011;9993;52.008;4.732;2023-03-01T17:06:36;8.80;;;5.53;;
19687;SDS011;9993;52.008;4.732;2023-03-01T17:09:01;8.17;;;5.17;;
19687;SDS011;9993;52.008;4.732;2023-03-01T17:11:27;6.20;;;5.10;;
19687;SDS011;9993;52.008;4.732;2023-03-01T17:13:52;6.20;;;5.60;;
19687;SDS011;9993;52.008;4.732;2023-03-01T17:16:18;6.63;;;5.80;;
19687;SDS011;9993;52.008;4.732;2023-03-01T17:18:44;9.00;;;5.40;;
19687;SDS011;9993;52.008;4.732;2023-03-01T17:21:09;7.17;;;5.60;;
19687;SDS011;9993;52.008;4.732;2023-03-01T17:23:36;6.50;;;4.93;;
19687;SDS011;9993;52.008;4.732;2023-03-01T17:26:01;8.47;;;5.27;;
19687;SDS011;9993;52.008;4.732;2023-03-01T17:28:28;5.80;;;4.97;;
19687;SDS011;9993;52.008;4.732;2023-03-01T17:30:53;7.13;;;5.50;;
19687;SDS011;9993;52.008;4.732;2023-03-01T17:33:18;7.13;;;5.77;;
19687;SDS011;9993;52.008;4.732;2023-03-01T17:35:44;6.80;;;6.10;;
19687;SDS011;9993;52.008;4.732;2023-03-01T17:38:11;7.07;;;6.00;;
19687;SDS011;9993;52.008;4.732;2023-03-01T17:40:36;6.37;;;5.37;;
19687;SDS011;9993;52.008;4.732;2023-03-01T17:43:02;8.10;;;5.97;;
19687;SDS011;9993;52.008;4.732;2023-03-01T17:45:27;6.53;;;5.93;;
19687;SDS011;9993;52.008;4.732;2023-03-01T17:47:53;6.27;;;5.23;;
19687;SDS011;9993;52.008;4.732;2023-03-01T17:50:18;6.17;;;5.50;;
19687;SDS011;9993;52.008;4.732;2023-03-01T17:52:43;7.70;;;5.97;;
19687;SDS011;9993;52.008;4.732;2023-03-01T17:55:08;6.70;;;5.47;;
19687;SDS011;9993;52.008;4.732;2023-03-01T17:57:36;9.73;;;6.13;;
19687;SDS011;9993;52.008;4.732;2023-03-01T18:00:02;7.17;;;5.87;;
19687;SDS011;9993;52.008;4.732;2023-03-01T18:02:28;7.33;;;5.20;;
19687;SDS011;9993;52.008;4.732;2023-03-01T18:04:56;6.77;;;5.97;;
19687;SDS011;9993;52.008;4.732;2023-03-01T18:07:22;7.80;;;5.60;;
19687;SDS011;9993;52.008;4.732;2023-03-01T18:09:47;10.00;;;6.20;;
19687;SDS011;9993;52.008;4.732;2023-03-01T18:12:12;7.77;;;6.27;;
19687;SDS011;9993;52.008;4.732;2023-03-01T18:14:37;8.43;;;6.13;;